Time;durP1;ratioP1;P1;durP2;ratioP2;P2;SDS_P1;SDS_P2;PMS_P1;PMS_P2;Temp;Humidity;BMP_temperature;BMP_pressure;BME280_temperature;BME280_humidity;BME280_pressure;Samples;Min_cycle;Max_cycle;Signal;HPM_P1;HPM_P2
2023/01/09 00:01:48;;;;;;;1999.90;999.90;;;12.70;99.90;;;;;;4953255;28;20051;-76
2023/01/09 00:04:14;;;;;;;1999.90;999.90;;;12.70;99.90;;;;;;4949117;28;20138;-74
2023/01/09 00:06:42;;;;;;;1999.90;999.90;;;12.60;18.60;;;;;;4944901;28;20119;-74
2023/01/09 00:09:08;;;;;;;1999.90;999.90;;;12.40;30.80;;;;;;4942468;28;20395;-75
2023/01/09 00:11:34;;;;;;;1999.90;999.90;;;;;;;;;;4951160;28;20126;-77
2023/01/09 00:14:00;;;;;;;1999.90;999.90;;;12.60;1.00;;;;;;4953008;28;20047;-77
2023/01/09 00:16:26;;;;;;;1999.90;999.90;;;12.60;7.20;;;;;;4946967;28;20047;-77
2023/01/09 00:18:52;;;;;;;1999.90;999.90;;;12.70;1.00;;;;;;4947620;29;20504;-77
2023/01/09 00:21:18;;;;;;;1999.90;999.90;;;12.60;53.30;;;;;;4939723;29;20496;-77
2023/01/09 00:23:45;;;;;;;1999.90;999.90;;;12.60;99.90;;;;;;4956603;29;20051;-77
2023/01/09 00:26:13;;;;;;;1999.90;999.90;;;12.60;99.90;;;;;;4954532;28;20051;-76
2023/01/09 00:28:39;;;;;;;1999.90;999.90;;;12.60;1.00;;;;;;4956089;29;20083;-75
2023/01/09 00:31:08;;;;;;;1999.90;999.90;;;11.60;9.90;;;;;;4941690;29;20090;-75
2023/01/09 00:33:39;;;;;;;1999.90;999.90;;;12.60;99.90;;;;;;4938761;28;20090;-80
2023/01/09 00:36:05;;;;;;;1999.90;999.90;;;11.40;99.90;;;;;;4958566;28;20492;-79
2023/01/09 00:38:32;;;;;;;1999.90;999.90;;;11.00;99.90;;;;;;4956442;28;20052;-79
2023/01/09 00:40:58;;;;;;;1999.90;999.90;;;;;;;;;;4956205;28;20051;-86
2023/01/09 00:43:30;;;;;;;1999.90;999.90;;;12.50;99.90;;;;;;4954466;28;20534;-80
2023/01/09 00:45:56;;;;;;;1999.90;999.90;;;11.70;99.90;;;;;;4956152;29;20055;-79
2023/01/09 00:48:25;;;;;;;1999.90;999.90;;;12.40;99.90;;;;;;4939212;29;20052;-82
2023/01/09 00:50:54;;;;;;;1999.90;999.90;;;11.90;99.90;;;;;;4950880;29;20047;-81
2023/01/09 00:53:22;;;;;;;1999.90;999.90;;;11.80;99.90;;;;;;4937807;29;20055;-82
2023/01/09 00:55:49;;;;;;;1999.90;999.90;;;12.10;99.90;;;;;;4946982;28;20051;-81
2023/01/09 00:58:14;;;;;;;1999.90;999.90;;;12.60;99.90;;;;;;4937375;28;20059;-82
2023/01/09 01:00:40;;;;;;;1999.90;999.90;;;12.70;99.90;;;;;;4949778;28;20043;-79
2023/01/09 01:03:06;;;;;;;1999.90;999.90;;;12.60;99.90;;;;;;4951853;28;20047;-79
2023/01/09 01:08:18;;;;;;;1999.90;999.90;;;11.90;99.90;;;;;;4942715;28;20079;-81
2023/01/09 01:10:44;;;;;;;;;;;12.10;99.90;;;;;;4945211;28;20066;-79
2023/01/09 01:13:11;;;;;;;1999.90;999.90;;;12.80;99.90;;;;;;4938567;28;20355;-80
2023/01/09 01:15:42;;;;;;;1999.90;999.90;;;12.30;99.90;;;;;;4945184;28;20472;-80
2023/01/09 01:18:08;;;;;;;1999.90;999.90;;;13.20;99.90;;;;;;4942287;28;20131;-86
2023/01/09 01:20:34;;;;;;;1999.90;999.90;;;12.90;99.90;;;;;;4941073;28;20040;-79
2023/01/09 01:23:00;;;;;;;1999.90;999.90;;;12.50;99.90;;;;;;4930683;28;20180;-80
2023/01/09 01:25:26;;;;;;;1999.90;999.90;;;13.00;99.90;;;;;;4943234;28;20086;-80
2023/01/09 01:27:52;;;;;;;1999.90;999.90;;;12.80;99.90;;;;;;4940035;28;20098;-80
2023/01/09 01:30:18;;;;;;;1999.90;999.90;;;12.80;99.90;;;;;;4940729;28;20039;-89
2023/01/09 01:32:44;;;;;;;1999.90;999.90;;;12.90;99.90;;;;;;4939178;28;20043;-80
2023/01/09 01:35:11;;;;;;;1999.90;999.90;;;12.00;99.90;;;;;;4932374;28;20051;-80
2023/01/09 01:37:37;;;;;;;1999.90;999.90;;;11.90;99.90;;;;;;4948253;28;20459;-80
2023/01/09 01:40:06;;;;;;;1999.90;999.90;;;12.70;99.90;;;;;;4943819;28;20050;-81
2023/01/09 01:42:32;;;;;;;1999.90;999.90;;;13.40;99.90;;;;;;4947276;28;20117;-84
2023/01/09 01:45:07;;;;;;;1999.90;999.90;;;12.70;99.90;;;;;;4937788;28;20063;-80
2023/01/09 01:47:39;;;;;;;1999.90;999.90;;;12.60;99.90;;;;;;4942116;28;20102;-79
2023/01/09 01:50:34;;;;;;;1999.90;348.02;;;11.90;99.90;;;;;;4940998;28;20081;-89
2023/01/09 01:53:05;;;;;;;1999.90;999.90;;;12.60;99.90;;;;;;4933568;28;20051;-79
2023/01/09 01:55:35;;;;;;;1999.90;999.90;;;11.90;99.90;;;;;;4947610;28;20047;-79
2023/01/09 01:58:04;;;;;;;1999.90;999.90;;;12.60;99.90;;;;;;4942423;28;20067;-79
2023/01/09 02:00:34;;;;;;;1999.90;999.90;;;12.00;99.90;;;;;;4937179;28;20050;-84
2023/01/09 02:03:00;;;;;;;1999.90;999.90;;;12.10;99.90;;;;;;4941285;28;20400;-79
2023/01/09 02:05:27;;;;;;;1999.90;999.90;;;12.20;99.90;;;;;;4942696;28;20051;-78
2023/01/09 02:07:52;;;;;;;1999.90;542.85;;;11.80;99.90;;;;;;4942378;28;20047;-79
2023/01/09 02:10:22;;;;;;;1999.90;999.90;;;12.60;99.90;;;;;;4941857;28;20122;-87
2023/01/09 02:12:48;;;;;;;1999.90;999.90;;;11.70;99.90;;;;;;4942869;28;20066;-78
2023/01/09 02:15:15;;;;;;;1999.90;999.90;;;11.70;99.90;;;;;;4941047;28;20566;-79
2023/01/09 02:18:09;;;;;;;1999.90;999.90;;;11.60;99.90;;;;;;4938429;28;20107;-78
2023/01/09 02:20:47;;;;;;;1999.90;999.90;;;12.50;99.90;;;;;;4943640;28;20131;-78
2023/01/09 02:23:54;;;;;;;1999.90;999.90;;;12.50;99.90;;;;;;4944639;28;20087;-78
2023/01/09 02:27:00;;;;;;;1999.90;999.90;;;12.20;99.90;;;;;;4941348;28;20044;-77
2023/01/09 02:30:04;;;;;;;1999.90;999.90;;;12.00;99.90;;;;;;4943827;28;20054;-77
2023/01/09 02:32:30;;;;;;;1999.90;999.90;;;12.30;99.90;;;;;;4882323;29;20044;-77
2023/01/09 02:35:02;;;;;;;1999.90;999.90;;;11.70;99.90;;;;;;4932106;28;20073;-77
2023/01/09 02:37:49;;;;;;;1999.90;999.90;;;12.20;99.90;;;;;;4937093;28;20802;-80
2023/01/09 02:40:20;;;;;;;1999.90;999.90;;;12.20;99.90;;;;;;4942516;28;20130;-77
2023/01/09 02:42:47;;;;;;;1999.90;999.90;;;12.10;99.90;;;;;;4935610;28;20071;-77
2023/01/09 02:45:13;;;;;;;1999.90;999.90;;;11.60;99.90;;;;;;4946041;28;20055;-78
2023/01/09 02:47:41;;;;;;;1999.90;999.90;;;11.40;99.90;;;;;;4939576;28;20054;-77
2023/01/09 02:50:15;;;;;;;1999.90;999.90;;;11.90;99.90;;;;;;4954268;29;20051;-77
2023/01/09 02:52:47;;;;;;;1999.90;999.90;;;12.10;99.90;;;;;;4953086;29;20039;-77
2023/01/09 02:55:30;;;;;;;1999.90;999.90;;;9.80;99.90;;;;;;4953662;29;20062;-77
2023/01/09 02:58:06;;;;;;;1999.90;999.90;;;11.20;99.90;;;;;;4954549;29;20051;-76
2023/01/09 03:00:53;;;;;;;1999.90;999.90;;;12.00;99.90;;;;;;4951460;28;20153;-77
2023/01/09 03:03:26;;;;;;;1999.90;999.90;;;11.40;99.90;;;;;;4945760;28;20110;-76
2023/01/09 03:06:26;;;;;;;1999.90;999.90;;;12.00;99.90;;;;;;4951619;29;20050;-79
2023/01/09 03:08:58;;;;;;;1999.90;999.90;;;13.00;99.90;;;;;;4953392;28;20500;-76
2023/01/09 03:11:27;;;;;;;1999.90;999.90;;;13.70;99.90;;;;;;4952843;29;20043;-76
2023/01/09 03:14:03;;;;;;;1999.90;999.90;;;11.70;99.90;;;;;;4953956;28;20051;-76
2023/01/09 03:16:35;;;;;;;1999.90;999.90;;;13.90;99.90;;;;;;4952296;28;20507;-77
2023/01/09 03:19:04;;;;;;;1999.90;999.90;;;11.00;99.90;;;;;;4953580;29;20507;-76
2023/01/09 03:21:32;;;;;;;1999.90;999.90;;;11.60;99.90;;;;;;4951887;28;20508;-76
2023/01/09 03:24:00;;;;;;;1999.90;999.90;;;11.80;99.90;;;;;;4953604;28;20047;-76
2023/01/09 03:26:28;;;;;;;1999.90;999.90;;;12.10;99.90;;;;;;4952690;29;20122;-76
2023/01/09 03:28:54;;;;;;;1999.90;999.90;;;11.40;99.90;;;;;;4954032;28;20060;-76
2023/01/09 03:31:20;;;;;;;1999.90;999.90;;;11.80;99.90;;;;;;4952163;29;20047;-77
2023/01/09 03:33:46;;;;;;;1770.00;526.40;;;11.20;99.90;;;;;;4951320;28;20055;-76
2023/01/09 03:36:13;;;;;;;1999.90;999.90;;;11.60;99.90;;;;;;4952273;29;20122;-78
2023/01/09 03:38:39;;;;;;;1999.90;999.90;;;11.00;99.90;;;;;;4951827;28;20051;-77
2023/01/09 03:41:05;;;;;;;1999.90;999.90;;;11.40;99.90;;;;;;4956168;29;20043;-76
2023/01/09 03:43:31;;;;;;;1999.90;999.90;;;11.60;99.90;;;;;;4956913;28;20047;-76
2023/01/09 03:45:57;;;;;;;1999.90;999.90;;;11.60;99.90;;;;;;4957170;29;20051;-77
2023/01/09 03:48:23;;;;;;;1999.90;999.90;;;10.90;99.90;;;;;;4954904;29;20082;-77
2023/01/09 03:50:53;;;;;;;1999.90;999.90;;;11.40;99.90;;;;;;4952547;29;20097;-77
2023/01/09 03:53:20;;;;;;;1999.90;999.90;;;10.70;99.90;;;;;;4955996;28;20051;-80
2023/01/09 03:55:47;;;;;;;1999.90;999.90;;;10.80;99.90;;;;;;4938277;29;20056;-77
2023/01/09 03:58:14;;;;;;;1999.90;999.90;;;10.70;99.90;;;;;;4953058;29;20519;-77
2023/01/09 04:00:41;;;;;;;1999.90;999.90;;;11.30;99.90;;;;;;4952736;29;20137;-86
2023/01/09 04:03:07;;;;;;;1999.90;999.90;;;11.50;99.90;;;;;;4955632;28;20055;-76
2023/01/09 04:05:34;;;;;;;1999.90;999.90;;;11.50;99.90;;;;;;4952904;28;20087;-76
2023/01/09 04:08:00;;;;;;;1999.90;999.90;;;10.90;99.90;;;;;;4951639;29;20464;-77
2023/01/09 04:10:26;;;;;;;1999.90;999.90;;;11.10;99.90;;;;;;4954737;28;20392;-76
2023/01/09 04:12:51;;;;;;;1999.90;999.90;;;11.40;99.90;;;;;;4950844;29;20124;-76
2023/01/09 04:15:17;;;;;;;1999.90;999.90;;;11.60;99.90;;;;;;4956165;28;20510;-84
2023/01/09 04:17:43;;;;;;;1999.90;999.90;;;10.60;99.90;;;;;;4955651;29;20035;-76
2023/01/09 04:20:09;;;;;;;1999.90;999.90;;;11.40;99.90;;;;;;4954701;29;20043;-77
2023/01/09 04:22:35;;;;;;;1999.90;999.90;;;9.30;99.90;;;;;;4954116;29;20062;-77
2023/01/09 04:25:01;;;;;;;1999.90;999.90;;;11.40;99.90;;;;;;4955343;29;20463;-77
2023/01/09 04:27:27;;;;;;;1999.90;999.90;;;10.90;99.90;;;;;;4955751;29;20047;-77
2023/01/09 04:29:52;;;;;;;1999.90;999.90;;;10.40;99.90;;;;;;4947140;28;20062;-76
2023/01/09 04:32:18;;;;;;;1999.90;999.90;;;10.50;99.90;;;;;;4940446;29;20055;-83
2023/01/09 04:34:44;;;;;;;1999.90;999.90;;;11.20;99.90;;;;;;4955625;28;20134;-76
2023/01/09 04:37:09;;;;;;;1999.90;999.90;;;10.40;99.90;;;;;;4937201;29;20055;-80
2023/01/09 04:39:36;;;;;;;1999.90;999.90;;;9.70;99.90;;;;;;4936847;29;20051;-76
2023/01/09 04:42:02;;;;;;;1999.90;999.90;;;11.10;99.90;;;;;;4949365;29;20118;-75
2023/01/09 04:44:28;;;;;;;1999.90;999.90;;;10.60;99.90;;;;;;4953641;29;20128;-76
2023/01/09 04:46:57;;;;;;;1999.90;999.90;;;10.40;99.90;;;;;;4936911;29;20048;-75
2023/01/09 04:49:23;;;;;;;1999.90;999.90;;;10.00;99.90;;;;;;4935143;29;20039;-77
2023/01/09 04:51:49;;;;;;;1999.90;999.90;;;10.90;99.90;;;;;;4936016;29;20130;-76
2023/01/09 04:54:15;;;;;;;1999.90;999.90;;;10.40;99.90;;;;;;4950304;29;20050;-76
2023/01/09 04:56:41;;;;;;;1999.90;999.90;;;11.20;99.90;;;;;;4954645;28;20051;-76
2023/01/09 04:59:07;;;;;;;1999.90;999.90;;;10.70;99.90;;;;;;4955077;28;20183;-79
2023/01/09 05:01:33;;;;;;;1999.90;999.90;;;10.90;99.90;;;;;;4954527;29;20679;-76
2023/01/09 05:03:59;;;;;;;1999.90;999.90;;;11.10;99.90;;;;;;4953140;28;20047;-76
2023/01/09 05:06:25;;;;;;;1999.90;999.90;;;10.70;99.90;;;;;;4954677;28;20046;-76
2023/01/09 05:08:51;;;;;;;1999.90;999.90;;;10.70;99.90;;;;;;4955506;28;20155;-77
2023/01/09 05:11:17;;;;;;;1999.90;999.90;;;10.80;99.90;;;;;;4954922;28;20049;-78
2023/01/09 05:13:43;;;;;;;1999.90;999.90;;;11.60;99.90;;;;;;4949322;28;20039;-79
2023/01/09 05:16:09;;;;;;;1999.90;999.90;;;11.10;99.90;;;;;;4954372;29;20051;-77
2023/01/09 05:18:34;;;;;;;1999.90;999.90;;;11.60;99.90;;;;;;4953791;29;20051;-76
2023/01/09 05:21:00;;;;;;;1999.90;999.90;;;11.60;99.90;;;;;;4953158;28;20477;-76
2023/01/09 05:23:26;;;;;;;1999.90;999.90;;;11.70;99.90;;;;;;4953987;28;20050;-76
2023/01/09 05:25:52;;;;;;;1999.90;999.90;;;;;;;;;;4954443;29;20442;-76
2023/01/09 05:28:18;;;;;;;1999.90;999.90;;;11.10;99.90;;;;;;4955761;29;20072;-76
2023/01/09 05:30:43;;;;;;;1999.90;999.90;;;11.20;99.90;;;;;;4954535;28;20054;-87
2023/01/09 05:33:09;;;;;;;1999.90;999.90;;;10.70;99.90;;;;;;4955075;29;20047;-79
2023/01/09 05:35:35;;;;;;;1999.90;999.90;;;11.00;99.90;;;;;;4950293;29;20131;-78
2023/01/09 05:38:00;;;;;;;1999.90;999.90;;;10.70;99.90;;;;;;4949964;28;20460;-77
2023/01/09 05:40:26;;;;;;;1999.90;999.90;;;11.50;99.90;;;;;;4954004;28;20051;-88
2023/01/09 05:42:52;;;;;;;1999.90;999.90;;;11.00;99.90;;;;;;4952150;28;20082;-79
2023/01/09 05:45:17;;;;;;;1999.90;999.90;;;12.70;99.90;;;;;;4952810;28;20047;-79
2023/01/09 05:47:44;;;;;;;1999.90;999.90;;;11.30;99.90;;;;;;4950901;29;20142;-77
2023/01/09 05:50:11;;;;;;;1999.90;999.90;;;10.90;99.90;;;;;;4954458;29;20093;-80
2023/01/09 05:52:37;;;;;;;1999.90;999.90;;;11.30;99.90;;;;;;4952882;29;20035;-78
2023/01/09 05:55:04;;;;;;;1999.90;999.90;;;10.90;99.90;;;;;;4955465;29;20354;-81
2023/01/09 05:57:30;;;;;;;1999.90;999.90;;;11.30;99.90;;;;;;4953590;29;20054;-87
2023/01/09 05:59:55;;;;;;;1999.90;999.90;;;10.80;99.90;;;;;;4955061;28;20131;-78
2023/01/09 06:02:21;;;;;;;1999.90;999.90;;;11.00;99.90;;;;;;4951259;28;20087;-76
2023/01/09 06:04:47;;;;;;;1999.90;999.90;;;11.50;99.90;;;;;;4945865;29;20047;-79
2023/01/09 06:07:13;;;;;;;1999.90;999.90;;;;;;;;;;4953442;28;20507;-78
2023/01/09 06:09:38;;;;;;;1999.90;999.90;;;11.20;99.90;;;;;;4948752;28;20087;-78
2023/01/09 06:12:04;;;;;;;1999.90;999.90;;;11.30;99.90;;;;;;4952853;29;20078;-78
2023/01/09 06:14:30;;;;;;;1999.90;999.90;;;11.70;99.90;;;;;;4954661;28;20047;-86
2023/01/09 06:16:56;;;;;;;1999.90;999.90;;;12.20;99.90;;;;;;4948365;28;20094;-78
2023/01/09 06:19:21;;;;;;;1999.90;999.90;;;11.10;99.90;;;;;;4950389;28;20105;-79
2023/01/09 06:21:47;;;;;;;1999.90;999.90;;;11.60;99.90;;;;;;4952537;28;20051;-77
2023/01/09 06:24:12;;;;;;;1999.90;999.90;;;11.30;99.90;;;;;;4934257;29;20054;-77
2023/01/09 06:26:38;;;;;;;1999.90;999.90;;;11.50;99.90;;;;;;4950503;28;20070;-80
2023/01/09 06:29:04;;;;;;;1999.90;999.90;;;12.10;99.90;;;;;;4947930;28;20043;-77
2023/01/09 06:31:30;;;;;;;1999.90;999.90;;;10.70;99.90;;;;;;4954149;29;20149;-81
2023/01/09 06:33:55;;;;;;;1999.90;999.90;;;11.30;99.90;;;;;;4952449;28;20130;-77
2023/01/09 06:36:22;;;;;;;1999.90;999.90;;;11.40;99.90;;;;;;4954616;29;20063;-77
2023/01/09 06:38:48;;;;;;;1999.90;999.90;;;;;;;;;;4952900;28;20051;-77
2023/01/09 06:41:13;;;;;;;1999.90;999.90;;;11.60;99.90;;;;;;4954710;29;20102;-77
2023/01/09 06:43:39;;;;;;;1999.90;999.90;;;10.40;99.90;;;;;;4954441;29;20043;-77
2023/01/09 06:46:05;;;;;;;1999.90;999.90;;;11.70;99.90;;;;;;4953118;29;20043;-77
2023/01/09 06:48:31;;;;;;;1999.90;999.90;;;10.70;99.90;;;;;;4949073;29;20047;-77
2023/01/09 06:50:57;;;;;;;1999.90;999.90;;;10.80;99.90;;;;;;4953242;28;20142;-77
2023/01/09 06:53:23;;;;;;;1999.90;999.90;;;10.40;99.90;;;;;;4953921;29;20122;-77
2023/01/09 06:55:49;;;;;;;1999.90;999.90;;;9.80;99.90;;;;;;4953620;29;20051;-77
2023/01/09 06:58:15;;;;;;;1999.90;999.90;;;11.60;99.90;;;;;;4952552;29;20106;-76
2023/01/09 07:00:41;;;;;;;1999.90;999.90;;;11.40;99.90;;;;;;4952738;29;20051;-77
2023/01/09 07:03:06;;;;;;;1999.90;999.90;;;10.60;99.90;;;;;;4954354;28;20381;-77
2023/01/09 07:05:40;;;;;;;1999.90;999.90;;;11.50;99.90;;;;;;4953203;29;20051;-77
2023/01/09 07:08:07;;;;;;;1999.90;999.90;;;10.50;99.90;;;;;;4952891;28;20507;-77
2023/01/09 07:10:32;;;;;;;1999.90;999.90;;;10.70;99.90;;;;;;4954349;28;20047;-77
2023/01/09 07:12:58;;;;;;;1999.90;999.90;;;11.00;99.90;;;;;;4952724;28;20381;-76
2023/01/09 07:15:24;;;;;;;1999.90;999.90;;;10.40;99.90;;;;;;4936455;29;20055;-76
2023/01/09 07:17:53;;;;;;;1999.90;999.90;;;9.30;99.90;;;;;;4953144;28;20047;-83
2023/01/09 07:20:19;;;;;;;1999.90;999.90;;;10.30;99.90;;;;;;4953048;29;20078;-77
2023/01/09 07:22:45;;;;;;;1999.90;999.90;;;10.30;99.90;;;;;;4952467;29;20062;-77
2023/01/09 07:25:12;;;;;;;1999.90;999.90;;;;;;;;;;4952965;29;20062;-76
2023/01/09 07:27:38;;;;;;;1999.90;999.90;;;10.40;99.90;;;;;;4954209;29;20047;-76
2023/01/09 07:30:05;;;;;;;1999.90;999.90;;;10.90;99.90;;;;;;4952097;29;20113;-81
2023/01/09 07:32:32;;;;;;;1999.90;999.90;;;10.40;99.90;;;;;;4952720;28;20428;-76
2023/01/09 07:34:57;;;;;;;1999.90;999.90;;;10.70;99.90;;;;;;4950678;29;20500;-76
2023/01/09 07:37:24;;;;;;;1999.90;999.90;;;11.00;99.90;;;;;;4934450;29;20048;-76
2023/01/09 07:39:49;;;;;;;1999.90;999.90;;;11.30;99.90;;;;;;4943653;28;20459;-78
2023/01/09 07:42:16;;;;;;;1999.90;999.90;;;10.30;99.90;;;;;;4953833;29;20040;-76
2023/01/09 07:44:42;;;;;;;1999.90;999.90;;;11.40;99.90;;;;;;4953368;28;20515;-77
2023/01/09 07:47:08;;;;;;;1999.90;999.90;;;10.40;99.90;;;;;;4951553;29;20039;-76
2023/01/09 07:49:33;;;;;;;1999.90;999.90;;;10.30;99.90;;;;;;4953595;28;20047;-76
2023/01/09 07:51:59;;;;;;;1999.90;999.90;;;10.60;99.90;;;;;;4953419;29;20141;-77
2023/01/09 07:54:25;;;;;;;1999.90;999.90;;;10.80;99.90;;;;;;4953437;29;20134;-77
2023/01/09 07:56:50;;;;;;;1999.90;999.90;;;11.50;99.90;;;;;;4951147;29;20483;-77
2023/01/09 07:59:16;;;;;;;1999.90;999.90;;;11.40;99.90;;;;;;4953895;28;20502;-85
2023/01/09 08:01:42;;;;;;;1999.90;999.90;;;11.40;99.90;;;;;;4953477;29;20098;-76
2023/01/09 08:04:08;;;;;;;1999.90;999.90;;;10.50;99.90;;;;;;4953557;29;20443;-76
2023/01/09 08:06:34;;;;;;;1999.90;999.90;;;10.50;99.90;;;;;;4952977;29;20074;-76
2023/01/09 08:08:59;;;;;;;1999.90;999.90;;;11.30;99.90;;;;;;4951158;29;20118;-76
2023/01/09 08:11:25;;;;;;;1999.90;999.90;;;11.40;99.90;;;;;;4953937;28;20461;-76
2023/01/09 08:13:51;;;;;;;1999.90;999.90;;;11.40;99.90;;;;;;4953022;29;20047;-77
2023/01/09 08:16:17;;;;;;;1999.90;999.90;;;10.80;99.90;;;;;;4952317;29;20087;-76
2023/01/09 08:18:43;;;;;;;1999.90;999.90;;;10.70;99.90;;;;;;4953680;29;20047;-76
2023/01/09 08:21:10;;;;;;;1999.90;999.90;;;9.50;99.90;;;;;;4952055;29;20049;-76
2023/01/09 08:23:36;;;;;;;1999.90;999.90;;;11.10;99.90;;;;;;4953239;28;20119;-76
2023/01/09 08:26:02;;;;;;;1999.90;999.90;;;13.10;99.90;;;;;;4953204;28;20099;-76
2023/01/09 08:28:28;;;;;;;1999.90;999.90;;;10.90;99.90;;;;;;4954673;29;20511;-76
2023/01/09 08:30:54;;;;;;;1999.90;999.90;;;;;;;;;;4956134;29;20089;-76
2023/01/09 08:33:20;;;;;;;1999.90;999.90;;;10.70;99.90;;;;;;4939571;28;20047;-76
2023/01/09 08:35:45;;;;;;;1999.90;999.90;;;9.60;99.90;;;;;;4956805;29;20066;-77
2023/01/09 08:38:11;;;;;;;1999.90;999.90;;;11.00;99.90;;;;;;4954412;28;20054;-76
2023/01/09 08:40:37;;;;;;;1999.90;999.90;;;10.90;99.90;;;;;;4956811;29;20091;-77
2023/01/09 08:48:31;;;;;;;1999.90;999.90;;;11.60;99.90;;;;;;4955867;29;20411;-76
2023/01/09 08:50:57;;;;;;;1999.90;999.90;;;10.60;99.90;;;;;;4952455;28;20043;-76
2023/01/09 08:53:23;;;;;;;1999.90;999.90;;;11.00;99.90;;;;;;4950060;29;20069;-76
2023/01/09 08:55:48;;;;;;;1999.90;999.90;;;11.70;99.90;;;;;;4955434;28;20051;-79
2023/01/09 08:58:14;;;;;;;1999.90;999.90;;;11.20;99.90;;;;;;4954965;29;20043;-76
2023/01/09 09:00:40;;;;;;;1999.90;999.90;;;10.90;99.90;;;;;;4956024;28;20086;-76
2023/01/09 09:03:06;;;;;;;1999.90;999.90;;;11.10;99.90;;;;;;4955332;28;20130;-76
2023/01/09 09:05:32;;;;;;;1999.90;999.90;;;11.60;99.90;;;;;;4955226;29;20508;-76
2023/01/09 09:07:58;;;;;;;1999.90;999.90;;;10.40;99.90;;;;;;4955617;28;20062;-76
2023/01/09 09:10:26;;;;;;;1999.90;999.90;;;11.00;99.90;;;;;;4955089;28;20059;-76
2023/01/09 09:12:54;;;;;;;1999.90;999.90;;;12.30;99.90;;;;;;4955754;29;20051;-84
2023/01/09 09:15:23;;;;;;;1999.90;999.90;;;11.80;99.90;;;;;;4954997;29;20051;-76
2023/01/09 09:17:52;;;;;;;1999.90;999.90;;;10.90;99.90;;;;;;4955015;29;20427;-78
2023/01/09 09:20:18;;;;;;;1999.90;999.90;;;11.90;99.90;;;;;;4955025;28;20047;-76
2023/01/09 09:22:45;;;;;;;1999.90;999.90;;;11.40;99.90;;;;;;4954385;28;20062;-76
2023/01/09 09:25:11;;;;;;;1999.90;999.90;;;11.40;99.90;;;;;;4955492;28;20051;-76
2023/01/09 09:27:37;;;;;;;1999.90;999.90;;;11.70;99.90;;;;;;4954289;29;20054;-76
2023/01/09 09:30:03;;;;;;;1999.90;999.90;;;11.20;99.90;;;;;;4954429;29;20058;-83
2023/01/09 09:32:30;;;;;;;1999.90;999.90;;;11.50;99.90;;;;;;4953908;28;20488;-77
2023/01/09 09:34:56;;;;;;;1999.90;999.90;;;11.10;99.90;;;;;;4939125;28;20063;-76
2023/01/09 09:37:22;;;;;;;1999.90;999.90;;;11.30;99.90;;;;;;4950192;28;20058;-76
2023/01/09 09:39:48;;;;;;;1999.90;999.90;;;12.00;99.90;;;;;;4936381;29;20044;-76
2023/01/09 09:46:18;;;;;;;1999.90;999.90;;;10.10;99.90;;;;;;4903407;29;20143;-76
2023/01/09 09:48:56;;;;;;;1999.90;999.90;;;12.10;99.90;;;;;;4936130;29;20054;-77
2023/01/09 09:51:57;;;;;;;1999.90;999.90;;;12.20;99.90;;;;;;4939316;28;20131;-76
2023/01/09 09:54:37;;;;;;;1999.90;999.90;;;13.30;99.90;;;;;;4942592;28;20055;-76
2023/01/09 09:57:05;;;;;;;1999.90;999.90;;;11.00;99.90;;;;;;4954791;29;20061;-76
2023/01/09 09:59:35;;;;;;;1999.90;999.90;;;11.90;99.90;;;;;;4954966;28;20471;-76
2023/01/09 10:02:23;;;;;;;1999.90;999.90;;;10.70;99.90;;;;;;4953632;28;20049;-77
2023/01/09 10:04:55;;;;;;;1999.90;999.90;;;12.40;99.90;;;;;;4954146;28;20090;-76
2023/01/09 10:07:26;;;;;;;1999.90;999.90;;;11.60;99.90;;;;;;4953769;29;20051;-76
2023/01/09 10:09:56;;;;;;;1999.90;999.90;;;11.80;99.90;;;;;;4954553;29;20055;-76
2023/01/09 10:12:30;;;;;;;1999.90;999.90;;;12.40;99.90;;;;;;4952182;28;20047;-76
2023/01/09 10:15:05;;;;;;;1999.90;999.90;;;11.80;99.90;;;;;;4953511;29;20055;-77
2023/01/09 10:17:49;;;;;;;1999.90;999.90;;;11.80;99.90;;;;;;4953592;29;20129;-76
2023/01/09 10:20:34;;;;;;;1999.90;999.90;;;12.60;99.90;;;;;;4953941;28;20106;-76
2023/01/09 10:23:19;;;;;;;1999.90;999.90;;;12.40;99.90;;;;;;4953376;28;20051;-76
2023/01/09 10:26:10;;;;;;;1999.90;999.90;;;11.70;99.90;;;;;;4954204;28;20203;-76
2023/01/09 10:29:08;;;;;;;1999.90;999.90;;;11.70;99.90;;;;;;4954885;29;20059;-76
2023/01/09 10:31:58;;;;;;;1999.90;999.90;;;12.90;99.90;;;;;;4942152;29;20129;-76
2023/01/09 10:34:24;;;;;;;1999.90;999.90;;;;;;;;;;4953686;28;20157;-85
2023/01/09 10:36:52;;;;;;;1999.90;999.90;;;12.00;99.90;;;;;;4953897;29;20055;-76
2023/01/09 10:39:33;;;;;;;1999.90;999.90;;;11.30;99.90;;;;;;4953652;29;20047;-77
2023/01/09 10:42:16;;;;;;;1999.90;999.90;;;12.60;99.90;;;;;;4953817;29;20488;-76
2023/01/09 10:44:52;;;;;;;1999.90;187.98;;;11.80;99.90;;;;;;4954639;29;20054;-76
2023/01/09 10:47:24;;;;;;;1999.90;999.90;;;12.60;99.90;;;;;;4953371;29;20130;-77
2023/01/09 10:49:52;;;;;;;1999.90;999.90;;;12.50;99.90;;;;;;4953853;28;20047;-77
2023/01/09 10:52:23;;;;;;;1999.90;999.90;;;11.70;99.90;;;;;;4953631;28;20176;-76
2023/01/09 10:54:59;;;;;;;1999.90;999.90;;;12.80;99.90;;;;;;4953599;29;20090;-77
2023/01/09 10:57:40;;;;;;;1866.00;571.13;;;12.80;99.90;;;;;;4952760;29;20295;-77
2023/01/09 11:00:12;;;;;;;1999.90;999.90;;;12.60;99.90;;;;;;4953855;28;20050;-80
2023/01/09 11:02:38;;;;;;;1999.90;999.90;;;12.40;99.90;;;;;;4953341;29;20061;-76
2023/01/09 11:05:04;;;;;;;1713.07;522.20;;;12.70;99.90;;;;;;4954453;28;20047;-77
2023/01/09 11:07:36;;;;;;;1999.90;999.90;;;12.90;99.90;;;;;;4951432;29;20492;-77
2023/01/09 11:10:07;;;;;;;1999.90;999.90;;;13.00;99.90;;;;;;4943571;28;20051;-76
2023/01/09 11:12:34;;;;;;;1999.90;999.90;;;12.90;99.90;;;;;;4934757;29;20051;-77
2023/01/09 11:15:15;;;;;;;1999.90;999.90;;;11.80;99.90;;;;;;4940557;28;20114;-77
2023/01/09 11:17:42;;;;;;;1999.90;999.90;;;12.30;99.90;;;;;;4939481;29;20056;-76
2023/01/09 11:20:26;;;;;;;1999.90;999.90;;;12.90;99.90;;;;;;4934815;29;20048;-77
2023/01/09 11:22:57;;;;;;;1999.90;999.90;;;12.40;99.90;;;;;;4934895;29;20048;-76
2023/01/09 11:25:26;;;;;;;1999.90;999.90;;;12.50;99.90;;;;;;4934367;29;20247;-76
2023/01/09 11:28:09;;;;;;;1999.90;999.90;;;11.90;99.90;;;;;;4936783;28;20131;-81
2023/01/09 11:30:36;;;;;;;1999.90;999.90;;;12.70;99.90;;;;;;4951206;28;20046;-77
2023/01/09 11:33:14;;;;;;;1999.90;999.90;;;11.80;99.90;;;;;;4953749;29;20047;-76
2023/01/09 11:35:56;;;;;;;1999.90;999.90;;;12.20;99.90;;;;;;4953531;29;20511;-77
2023/01/09 11:38:22;;;;;;;1999.90;999.90;;;;;;;;;;4937602;28;20131;-77
2023/01/09 11:40:56;;;;;;;1999.90;999.90;;;12.00;99.90;;;;;;4935073;29;20431;-77
2023/01/09 11:43:33;;;;;;;1999.90;127.43;;;12.20;99.90;;;;;;4933712;29;20114;-76
2023/01/09 11:46:02;;;;;;;1999.90;999.90;;;12.10;99.90;;;;;;4939972;28;20488;-76
2023/01/09 11:48:31;;;;;;;1999.90;999.90;;;12.10;99.90;;;;;;4953677;28;20051;-76
2023/01/09 11:50:59;;;;;;;1999.90;999.90;;;13.20;99.90;;;;;;4953970;29;20048;-77
2023/01/09 11:53:26;;;;;;;;;;;13.00;99.90;;;;;;4953405;29;20492;-77
2023/01/09 11:56:00;;;;;;;1999.90;999.90;;;12.90;99.90;;;;;;4951830;28;19922;-76
2023/01/09 11:58:34;;;;;;;1999.90;999.90;;;12.90;99.90;;;;;;4953216;28;20498;-77
2023/01/09 12:01:08;;;;;;;1999.90;999.90;;;13.30;99.90;;;;;;4955283;28;20130;-76
2023/01/09 12:04:24;;;;;;;1999.90;999.90;;;13.40;99.90;;;;;;4957436;28;20074;-77
2023/01/09 12:07:20;;;;;;;1999.90;999.90;;;13.30;99.90;;;;;;4870859;29;20050;-76
2023/01/09 12:10:17;;;;;;;1999.90;797.67;;;13.20;99.90;;;;;;4869316;29;20053;-77
2023/01/09 12:12:55;;;;;;;1999.90;999.90;;;13.10;99.90;;;;;;4954553;28;20055;-76
2023/01/09 12:15:31;;;;;;;1999.90;999.90;;;13.30;99.90;;;;;;4955115;29;20465;-76
2023/01/09 12:18:22;;;;;;;1999.90;999.90;;;12.40;99.90;;;;;;4954868;28;20555;-76
2023/01/09 12:21:06;;;;;;;1999.90;999.90;;;13.00;99.90;;;;;;4941932;28;20054;-76
2023/01/09 12:23:59;;;;;;;1999.90;999.90;;;12.30;99.90;;;;;;4957430;29;20061;-79
2023/01/09 12:26:32;;;;;;;1999.90;999.90;;;12.80;99.90;;;;;;4957254;29;20139;-76
2023/01/09 12:29:28;;;;;;;1999.90;999.90;;;12.30;99.90;;;;;;4956940;29;20051;-76